createdAt,value
2023-08-02T00:01:18.182Z,99.37
2023-08-02T00:06:25.727Z,98.93
2023-08-02T00:11:33.648Z,99.34
2023-08-02T00:16:42.566Z,99.74
2023-08-02T00:21:51.057Z,99.87
2023-08-02T00:26:58.238Z,99.69
2023-08-02T00:32:05.817Z,99.64
2023-08-02T00:37:14.533Z,99.99
2023-08-02T00:42:23.572Z,100.00
2023-08-02T00:47:32.469Z,100.00
2023-08-02T00:52:40.227Z,100.00
2023-08-02T00:57:47.649Z,100.00
2023-08-02T01:02:55.247Z,100.00
2023-08-02T01:08:07.066Z,100.00
2023-08-02T01:13:20.067Z,100.00
2023-08-02T01:18:27.930Z,100.00
2023-08-02T01:23:35.707Z,100.00
2023-08-02T01:28:47.200Z,100.00
2023-08-02T01:33:58.532Z,100.00
2023-08-02T01:39:08.591Z,100.00
2023-08-02T01:44:16.193Z,100.00
2023-08-02T01:49:24.307Z,100.00
2023-08-02T01:54:31.691Z,100.00
2023-08-02T01:59:39.564Z,100.00
2023-08-02T02:04:46.923Z,100.00
2023-08-02T02:09:54.530Z,100.00
2023-08-02T02:15:02.993Z,100.00
2023-08-02T02:20:14.066Z,100.00
2023-08-02T02:25:21.414Z,100.00
2023-08-02T02:30:29.435Z,100.00
2023-08-02T02:35:36.880Z,100.00
2023-08-02T02:40:44.899Z,100.00
2023-08-02T02:45:52.041Z,100.00
2023-08-02T02:50:59.427Z,100.00
2023-08-02T02:56:07.492Z,100.00
2023-08-02T03:01:15.757Z,100.00
2023-08-02T03:06:23.282Z,100.00
2023-08-02T03:11:30.864Z,100.00
2023-08-02T03:25:05.714Z,100.00
2023-08-02T03:30:13.858Z,100.00
2023-08-02T03:35:22.465Z,100.00
2023-08-02T03:40:30.140Z,100.00
2023-08-02T03:45:39.210Z,100.00
2023-08-02T03:50:46.694Z,100.00
2023-08-02T03:55:56.651Z,100.00
2023-08-02T04:01:04.257Z,100.00
2023-08-02T04:06:12.238Z,100.00
2023-08-02T04:11:19.588Z,100.00
2023-08-02T04:16:27.419Z,100.00
2023-08-02T04:21:37.166Z,100.00
2023-08-02T04:26:44.835Z,100.00
2023-08-02T04:31:52.610Z,100.00
2023-08-02T04:40:42.711Z,100.00
2023-08-02T04:45:50.142Z,100.00
2023-08-02T04:50:57.557Z,100.00
2023-08-02T04:56:10.315Z,100.00
2023-08-02T05:01:18.129Z,100.00
2023-08-02T05:06:25.878Z,100.00
2023-08-02T05:11:33.800Z,100.00
2023-08-02T05:16:41.242Z,100.00
2023-08-02T05:21:49.572Z,100.00
2023-08-02T05:26:57.845Z,100.00
2023-08-02T05:32:05.446Z,100.00
2023-08-02T05:37:14.070Z,99.84
2023-08-02T05:42:21.541Z,99.00
2023-08-02T05:47:29.599Z,98.44
2023-08-02T05:52:37.010Z,97.99
2023-08-02T05:57:44.833Z,97.77
2023-08-02T06:02:52.160Z,97.18
2023-08-02T06:07:59.685Z,95.71
2023-08-02T06:13:07.110Z,94.14
2023-08-02T06:18:14.969Z,93.04
2023-08-02T06:23:22.497Z,93.39
2023-08-02T06:28:30.502Z,92.54
2023-08-02T06:33:37.804Z,91.60
2023-08-02T06:38:46.771Z,91.20
2023-08-02T06:43:54.286Z,91.35
2023-08-02T06:49:02.291Z,90.81
2023-08-02T06:54:10.190Z,89.65
2023-08-02T06:59:18.593Z,89.58
2023-08-02T07:04:26.472Z,89.06
2023-08-02T07:09:34.587Z,88.61
2023-08-02T07:14:42.373Z,87.37
2023-08-02T07:19:50.861Z,86.99
2023-08-02T07:24:59.024Z,87.15
2023-08-02T07:30:10.209Z,86.96
2023-08-02T07:35:18.331Z,85.58
2023-08-02T07:40:25.991Z,85.70
2023-08-02T07:45:33.251Z,84.46
2023-08-02T07:50:40.981Z,83.98
2023-08-02T07:55:49.898Z,84.05
2023-08-02T08:00:58.333Z,82.86
2023-08-02T08:06:13.198Z,83.63
2023-08-02T08:11:22.497Z,82.87
2023-08-02T08:16:31.801Z,82.09
2023-08-02T08:21:39.752Z,80.66
2023-08-02T08:26:47.953Z,80.01
2023-08-02T08:31:57.002Z,79.33
2023-08-02T08:37:04.448Z,78.98
2023-08-02T08:42:15.119Z,78.99
2023-08-02T08:47:24.584Z,77.46
2023-08-02T08:52:35.625Z,75.91
2023-08-02T08:57:45.589Z,73.28
2023-08-02T09:02:53.859Z,73.22
2023-08-02T09:08:02.661Z,73.41
2023-08-02T09:13:22.141Z,72.51
2023-08-02T09:18:37.880Z,70.55
2023-08-02T09:23:50.217Z,69.60
2023-08-02T09:29:04.507Z,70.45
2023-08-02T09:34:11.877Z,69.92
2023-08-02T09:39:20.755Z,69.30
2023-08-02T09:44:28.541Z,68.08
2023-08-02T09:49:37.361Z,66.67
2023-08-02T09:54:46.794Z,65.57
2023-08-02T09:59:55.901Z,64.99
2023-08-02T10:05:04.619Z,66.86
2023-08-02T10:10:19.507Z,66.67
2023-08-02T10:15:28.907Z,65.61
2023-08-02T10:20:38.069Z,65.39
2023-08-02T10:25:46.772Z,64.78
2023-08-02T10:30:55.320Z,64.84
2023-08-02T10:36:04.562Z,64.63
2023-08-02T10:41:14.736Z,63.86
2023-08-02T10:46:24.254Z,62.76
2023-08-02T10:51:35.334Z,62.41
2023-08-02T10:57:15.763Z,63.73
2023-08-02T11:02:26.908Z,62.98
2023-08-02T11:07:36.472Z,63.45
2023-08-02T11:12:43.936Z,62.77
2023-08-02T11:17:56.761Z,63.93
2023-08-02T11:23:04.326Z,63.87
2023-08-02T11:28:11.909Z,63.90
2023-08-02T11:33:20.105Z,64.19
2023-08-02T11:38:29.240Z,62.64
2023-08-02T11:43:40.836Z,61.14
2023-08-02T11:48:48.596Z,62.04
2023-08-02T11:54:00.629Z,62.70
2023-08-02T11:59:09.970Z,62.17
2023-08-02T12:04:17.771Z,61.47
2023-08-02T12:09:44.591Z,60.79
2023-08-02T12:14:52.334Z,60.28
2023-08-02T12:20:02.402Z,59.36
2023-08-02T12:25:11.972Z,59.46
2023-08-02T12:30:22.168Z,59.75
2023-08-02T12:35:32.060Z,59.55
2023-08-02T12:40:42.381Z,59.45
2023-08-02T12:45:50.171Z,58.95
2023-08-02T12:50:57.757Z,58.97
2023-08-02T12:56:05.969Z,58.53
2023-08-02T13:01:16.035Z,56.95
2023-08-02T13:06:24.025Z,57.29
2023-08-02T13:11:31.944Z,57.48
2023-08-02T13:16:40.698Z,57.29
2023-08-02T13:21:48.750Z,57.58
2023-08-02T13:26:56.258Z,56.59
2023-08-02T13:32:04.080Z,56.51
2023-08-02T13:37:12.044Z,55.28
2023-08-02T13:42:19.911Z,55.73
2023-08-02T13:47:27.733Z,54.50
2023-08-02T13:52:36.405Z,54.89
2023-08-02T13:57:44.023Z,54.88
2023-08-02T14:02:52.015Z,54.91
2023-08-02T14:08:00.247Z,54.07
2023-08-02T14:13:09.814Z,53.37
2023-08-02T14:18:25.583Z,53.43
2023-08-02T14:23:31.246Z,51.64
2023-08-02T14:28:39.189Z,48.55
2023-08-02T14:33:48.343Z,48.55
2023-08-02T14:40:59.827Z,46.99
2023-08-02T14:46:04.489Z,44.60
2023-08-02T14:51:11.622Z,44.54
2023-08-02T14:56:15.644Z,44.91
2023-08-02T15:01:19.788Z,45.03
2023-08-02T15:06:26.302Z,45.43
2023-08-02T15:11:31.774Z,45.19
2023-08-02T15:16:36.795Z,45.24
2023-08-02T15:21:41.372Z,45.65
2023-08-02T15:26:48.267Z,45.68
2023-08-02T15:31:53.317Z,45.09
2023-08-02T15:36:57.549Z,45.99
2023-08-02T15:42:01.896Z,45.27
2023-08-02T15:47:07.594Z,45.95
2023-08-02T15:52:10.763Z,47.36
2023-08-02T15:57:15.054Z,47.54
2023-08-02T16:02:19.420Z,47.60
2023-08-02T16:07:24.619Z,48.66
2023-08-02T16:12:28.880Z,48.33
2023-08-02T16:17:33.191Z,49.40
2023-08-02T16:22:37.214Z,49.93
2023-08-02T16:27:41.494Z,49.97
2023-08-02T16:32:45.949Z,50.30
2023-08-02T16:37:52.393Z,50.54
2023-08-02T16:42:56.520Z,51.31
2023-08-02T16:48:01.335Z,51.24
2023-08-02T16:53:05.302Z,51.40
2023-08-02T16:58:09.541Z,52.32
2023-08-02T17:03:13.938Z,52.02
2023-08-02T17:08:18.881Z,53.12
2023-08-02T17:13:24.429Z,52.77
2023-08-02T17:18:30.424Z,52.58
2023-08-02T17:23:33.550Z,52.46
2023-08-02T17:28:38.827Z,52.54
2023-08-02T17:33:42.970Z,53.12
2023-08-02T17:38:47.134Z,53.34
2023-08-02T17:43:51.257Z,54.14
2023-08-02T17:48:55.387Z,54.15
2023-08-02T17:54:00.208Z,54.99
2023-08-02T17:59:04.584Z,55.48
2023-08-02T18:04:15.686Z,56.47
2023-08-02T18:09:20.336Z,56.62
2023-08-02T18:14:25.579Z,57.19
2023-08-02T18:19:29.495Z,57.48
2023-08-02T18:24:38.659Z,57.97
2023-08-02T18:29:44.613Z,58.20
2023-08-02T18:34:48.742Z,59.66
2023-08-02T18:39:52.869Z,61.07
2023-08-02T18:44:57.199Z,60.53
2023-08-02T18:50:01.901Z,60.37
2023-08-02T18:55:06.883Z,61.11
2023-08-02T19:00:14.356Z,62.93
2023-08-02T19:05:18.485Z,63.44
2023-08-02T19:10:22.640Z,63.86
2023-08-02T19:15:29.053Z,64.28
2023-08-02T19:20:33.861Z,64.61
2023-08-02T19:25:40.879Z,64.72
2023-08-02T19:30:49.159Z,66.00
2023-08-02T19:35:53.759Z,67.65
2023-08-02T19:40:59.228Z,67.87
2023-08-02T19:46:03.558Z,67.41
2023-08-02T19:51:10.681Z,67.48
2023-08-02T19:56:20.217Z,67.66
2023-08-02T20:01:27.581Z,67.81
2023-08-02T20:06:34.568Z,67.86
2023-08-02T20:11:39.449Z,68.10
2023-08-02T20:16:43.818Z,67.87
2023-08-02T20:21:48.258Z,68.86
2023-08-02T20:26:54.035Z,68.24
2023-08-02T20:31:57.865Z,68.60
2023-08-02T20:37:02.408Z,70.22
2023-08-02T20:42:10.304Z,69.97
2023-08-02T20:47:18.618Z,68.87
2023-08-02T20:52:23.859Z,69.41
2023-08-02T20:57:28.424Z,70.58
2023-08-02T21:02:33.198Z,70.54
2023-08-02T21:07:39.979Z,70.14
2023-08-02T21:12:44.681Z,70.78
2023-08-02T21:17:49.497Z,71.00
2023-08-02T21:22:53.500Z,70.40
2023-08-02T21:27:57.527Z,70.04
2023-08-02T21:33:02.397Z,70.17
2023-08-02T21:38:15.192Z,70.08
2023-08-02T21:43:21.301Z,70.24
2023-08-02T21:48:25.278Z,70.66
2023-08-02T21:53:29.349Z,70.73
2023-08-02T21:58:37.525Z,71.13
2023-08-02T22:03:43.077Z,71.38
2023-08-02T22:08:47.253Z,71.05
2023-08-02T22:13:51.755Z,71.16
2023-08-02T22:18:55.692Z,71.61
2023-08-02T22:24:00.181Z,72.47
2023-08-02T22:29:04.023Z,73.35
2023-08-02T22:37:24.408Z,73.06
2023-08-02T22:42:28.457Z,72.99
2023-08-02T22:47:35.060Z,73.34
2023-08-02T22:52:40.856Z,73.72
2023-08-02T22:57:46.895Z,73.87
2023-08-02T23:02:51.301Z,74.23
2023-08-02T23:07:56.361Z,74.32
2023-08-02T23:13:03.517Z,74.83
2023-08-02T23:18:09.778Z,75.59
2023-08-02T23:23:22.427Z,76.05
2023-08-02T23:28:28.167Z,76.34
2023-08-02T23:33:33.324Z,76.79
2023-08-02T23:38:37.892Z,77.31
2023-08-02T23:43:41.829Z,77.60
2023-08-02T23:48:46.043Z,78.15
2023-08-02T23:53:50.139Z,78.59
2023-08-02T23:58:54.276Z,78.93
